Time;durP1;ratioP1;P1;durP2;ratioP2;P2;SDS_P1;SDS_P2;PMS_P1;PMS_P2;Temp;Humidity;BMP_temperature;BMP_pressure;BME280_temperature;BME280_humidity;BME280_pressure;Samples;Min_cycle;Max_cycle;Signal;HPM_P1;HPM_P2
2022/04/11 00:00:58;;;;;;;;;;;9.50;99.90;;;;;;5097297;28;19931;-76
2022/04/11 00:03:24;;;;;;;;;;;9.50;99.90;;;;;;5094575;28;19920;-75
2022/04/11 00:05:49;;;;;;;;;;;9.50;99.90;;;;;;5095311;28;20384;-76
2022/04/11 00:08:15;;;;;;;;;;;9.50;99.90;;;;;;5095147;28;20021;-76
2022/04/11 00:10:41;;;;;;;;;;;9.50;99.90;;;;;;5094426;28;19916;-76
2022/04/11 00:13:07;;;;;;;;;;;9.50;99.90;;;;;;5095640;28;19908;-76
2022/04/11 00:15:34;;;;;;;;;;;9.50;99.90;;;;;;5094155;28;19919;-76
2022/04/11 00:18:03;;;;;;;;;;;9.40;99.90;;;;;;5095154;28;20014;-76
2022/04/11 00:20:29;;;;;;;;;;;9.40;99.90;;;;;;5093114;28;19917;-75
2022/04/11 00:22:55;;;;;;;;;;;9.40;99.90;;;;;;5094497;28;20262;-76
2022/04/11 00:25:20;;;;;;;;;;;9.40;99.90;;;;;;5094215;28;19960;-76
2022/04/11 00:27:46;;;;;;;;;;;9.40;99.90;;;;;;5094686;28;20002;-76
2022/04/11 00:30:12;;;;;;;;;;;9.40;99.90;;;;;;5094687;28;19959;-76
2022/04/11 00:32:39;;;;;;;;;;;9.40;99.90;;;;;;5093089;28;19908;-76
2022/04/11 00:35:05;;;;;;;;;;;9.40;99.90;;;;;;5094202;28;20016;-76
2022/04/11 00:37:31;;;;;;;;;;;9.30;99.90;;;;;;5094211;28;19956;-75
2022/04/11 00:39:56;;;;;;;;;;;9.30;99.90;;;;;;5094946;28;19909;-76
2022/04/11 00:42:26;;;;;;;;;;;9.30;99.90;;;;;;5094663;28;19915;-76
2022/04/11 00:44:52;;;;;;;;;;;9.30;99.90;;;;;;5094408;28;19912;-76
2022/04/11 00:47:17;;;;;;;;;;;9.30;99.90;;;;;;5094823;28;20265;-76
2022/04/11 00:49:43;;;;;;;;;;;9.30;99.90;;;;;;5093653;28;19995;-77
2022/04/11 00:52:09;;;;;;;;;;;9.30;99.90;;;;;;5094299;28;20280;-76
2022/04/11 00:54:35;;;;;;;;;;;9.30;99.90;;;;;;5093635;28;19912;-76
2022/04/11 00:57:01;;;;;;;;;;;9.30;99.90;;;;;;5093980;28;19920;-76
2022/04/11 00:59:28;;;;;;;;;;;9.30;99.90;;;;;;5093884;28;19914;-76
2022/04/11 01:01:53;;;;;;;;;;;9.30;99.90;;;;;;5094113;28;19995;-76
2022/04/11 01:04:26;;;;;;;;;;;9.20;99.90;;;;;;5093921;28;19971;-76
2022/04/11 01:06:55;;;;;;;;;;;9.30;99.90;;;;;;5094255;28;19919;-76
2022/04/11 01:09:22;;;;;;;;;;;9.20;99.90;;;;;;5093977;28;19912;-77
2022/04/11 01:11:48;;;;;;;;;;;9.30;99.90;;;;;;5093482;28;20611;-77
2022/04/11 01:14:13;;;;;;;;;;;9.20;99.90;;;;;;5093979;28;19915;-76
2022/04/11 01:16:39;;;;;;;;;;;9.30;99.90;;;;;;5094078;28;19919;-76
2022/04/11 01:19:05;;;;;;;;;;;9.30;99.90;;;;;;5105604;28;19908;-76
2022/04/11 01:21:31;;;;;;;;;;;9.30;99.90;;;;;;5093321;28;19961;-76
2022/04/11 01:23:57;;;;;;;;;;;9.30;99.90;;;;;;5093517;28;20027;-76
2022/04/11 01:26:22;;;;;;;;;;;9.20;99.90;;;;;;5093728;28;19912;-76
2022/04/11 01:28:48;;;;;;;;;;;9.20;99.90;;;;;;5093235;28;19994;-76
2022/04/11 01:31:15;;;;;;;;;;;9.20;99.90;;;;;;5093772;28;19958;-77
2022/04/11 01:33:41;;;;;;;;;;;9.30;99.90;;;;;;5093004;28;19962;-77
2022/04/11 01:36:06;;;;;;;;;;;9.20;99.90;;;;;;5093532;28;19951;-76
2022/04/11 01:38:32;;;;;;;;;;;9.20;99.90;;;;;;5092139;28;19991;-76
2022/04/11 01:40:58;;;;;;;;;;;9.30;99.90;;;;;;5092393;28;19916;-76
2022/04/11 01:43:24;;;;;;;;;;;9.30;99.90;;;;;;5093165;28;20317;-76
2022/04/11 01:45:50;;;;;;;;;;;9.20;99.90;;;;;;5092747;28;19952;-76
2022/04/11 01:48:16;;;;;;;;;;;9.20;99.90;;;;;;5093327;28;19908;-76
2022/04/11 01:50:41;;;;;;;;;;;9.20;99.90;;;;;;5092566;28;19908;-76
2022/04/11 01:53:08;;;;;;;;;;;9.20;99.90;;;;;;5092017;28;19908;-76
2022/04/11 01:55:34;;;;;;;;;;;9.20;99.90;;;;;;5092874;28;19919;-76
2022/04/11 01:58:00;;;;;;;;;;;9.30;99.90;;;;;;5093420;28;19943;-77
2022/04/11 02:00:26;;;;;;;;;;;9.30;99.90;;;;;;5093410;28;19977;-77
2022/04/11 02:02:52;;;;;;;;;;;9.30;99.90;;;;;;5092295;28;19912;-77
2022/04/11 02:05:18;;;;;;;;;;;9.30;99.90;;;;;;5093380;28;19908;-77
2022/04/11 02:07:43;;;;;;;;;;;9.20;99.90;;;;;;5092708;28;19908;-77
2022/04/11 02:10:09;;;;;;;;;;;9.30;99.90;;;;;;5092064;28;19954;-76
2022/04/11 02:12:35;;;;;;;;;;;9.30;99.90;;;;;;5090884;28;20254;-76
2022/04/11 02:15:00;;;;;;;;;;;9.30;99.90;;;;;;5091695;28;19963;-76
2022/04/11 02:17:26;;;;;;;;;;;9.20;99.90;;;;;;5093241;28;20024;-76
2022/04/11 02:19:51;;;;;;;;;;;9.20;99.90;;;;;;5092478;28;20482;-77
2022/04/11 02:22:17;;;;;;;;;;;9.20;99.90;;;;;;5092502;28;19919;-77
2022/04/11 02:24:43;;;;;;;;;;;9.20;99.90;;;;;;5091482;28;19961;-76
2022/04/11 02:27:08;;;;;;;;;;;9.20;99.90;;;;;;5092922;28;19908;-76
2022/04/11 02:29:34;;;;;;;;;;;9.20;99.90;;;;;;5091136;28;19908;-76
2022/04/11 02:31:59;;;;;;;;;;;9.20;99.90;;;;;;5092685;28;19908;-76
2022/04/11 02:34:26;;;;;;;;;;;9.20;99.90;;;;;;5092739;28;19908;-76
2022/04/11 02:36:51;;;;;;;;;;;9.20;99.90;;;;;;5099365;28;19998;-77
2022/04/11 02:39:17;;;;;;;;;;;9.10;99.90;;;;;;5097522;28;19921;-77
2022/04/11 02:41:42;;;;;;;;;;;9.20;99.90;;;;;;5092104;28;19915;-77
2022/04/11 02:44:08;;;;;;;;;;;9.10;99.90;;;;;;5092741;28;19955;-77
2022/04/11 02:46:34;;;;;;;;;;;9.10;99.90;;;;;;5092364;28;19908;-76
2022/04/11 02:48:59;;;;;;;;;;;9.10;99.90;;;;;;5094033;28;19915;-77
2022/04/11 02:51:25;;;;;;;;;;;9.20;99.90;;;;;;5095425;28;20357;-77
2022/04/11 02:53:50;;;;;;;;;;;9.10;99.90;;;;;;5096157;28;19908;-77
2022/04/11 02:56:16;;;;;;;;;;;9.10;99.90;;;;;;5096438;28;19913;-77
2022/04/11 02:58:41;;;;;;;;;;;9.10;99.90;;;;;;5094815;28;19995;-76
2022/04/11 03:01:07;;;;;;;;;;;9.10;99.90;;;;;;5096599;28;20380;-77
2022/04/11 03:03:33;;;;;;;;;;;9.10;99.90;;;;;;5096058;28;20054;-77
2022/04/11 03:05:58;;;;;;;;;;;9.10;99.90;;;;;;5095936;28;19908;-76
2022/04/11 03:08:24;;;;;;;;;;;9.10;99.90;;;;;;5096330;28;19908;-77
2022/04/11 03:10:50;;;;;;;;;;;9.10;99.90;;;;;;5095744;28;19951;-76
2022/04/11 03:13:15;;;;;;;;;;;9.10;99.90;;;;;;5096273;28;20365;-77
2022/04/11 03:15:41;;;;;;;;;;;9.00;99.90;;;;;;5095443;28;19912;-76
2022/04/11 03:18:07;;;;;;;;;;;9.10;99.90;;;;;;5095846;28;19912;-78
2022/04/11 03:20:33;;;;;;;;;;;9.00;99.90;;;;;;5096088;28;19940;-77
2022/04/11 03:22:58;;;;;;;;;;;9.00;99.90;;;;;;5094109;28;19959;-77
2022/04/11 03:25:24;;;;;;;;;;;9.00;99.90;;;;;;5096143;28;20348;-77
2022/04/11 03:27:50;;;;;;;;;;;9.00;99.90;;;;;;5095617;28;19958;-77
2022/04/11 03:30:15;;;;;;;;;;;9.00;99.90;;;;;;5096163;28;19962;-77
2022/04/11 03:32:41;;;;;;;;;;;9.00;99.90;;;;;;5095220;28;19958;-76
2022/04/11 03:35:07;;;;;;;;;;;9.00;99.90;;;;;;5096072;28;19916;-77
2022/04/11 03:37:32;;;;;;;;;;;8.90;99.90;;;;;;5095905;28;20310;-77
2022/04/11 03:39:58;;;;;;;;;;;8.90;99.90;;;;;;5093969;28;19919;-77
2022/04/11 03:42:23;;;;;;;;;;;8.90;99.90;;;;;;5095788;28;20268;-77
2022/04/11 03:44:49;;;;;;;;;;;8.90;99.90;;;;;;5094001;28;20046;-77
2022/04/11 03:47:14;;;;;;;;;;;8.90;99.90;;;;;;5095588;28;19915;-77
2022/04/11 03:49:40;;;;;;;;;;;8.90;99.90;;;;;;5095203;28;20349;-76
2022/04/11 03:52:06;;;;;;;;;;;8.90;99.90;;;;;;5094349;28;19908;-77
2022/04/11 03:54:31;;;;;;;;;;;9.00;99.90;;;;;;5095811;28;19981;-77
2022/04/11 03:56:57;;;;;;;;;;;9.00;99.90;;;;;;5094866;28;19918;-77
2022/04/11 03:59:22;;;;;;;;;;;9.00;99.90;;;;;;5095193;28;19908;-77
2022/04/11 04:01:48;;;;;;;;;;;9.00;99.90;;;;;;5094047;28;19912;-77
2022/04/11 04:04:14;;;;;;;;;;;8.90;99.90;;;;;;5095350;28;20492;-77
2022/04/11 04:06:39;;;;;;;;;;;8.90;99.90;;;;;;5094983;28;19908;-76
2022/04/11 04:09:05;;;;;;;;;;;8.90;99.90;;;;;;5094824;28;19908;-77
2022/04/11 04:11:30;;;;;;;;;;;8.90;99.90;;;;;;5094899;28;19946;-77
2022/04/11 04:13:56;;;;;;;;;;;8.90;99.90;;;;;;5094373;28;19908;-77
2022/04/11 04:16:21;;;;;;;;;;;8.90;99.90;;;;;;5094913;28;19942;-77
2022/04/11 04:18:47;;;;;;;;;;;8.90;99.90;;;;;;5094479;28;19912;-77
2022/04/11 04:21:12;;;;;;;;;;;8.90;99.90;;;;;;5094985;28;19915;-77
2022/04/11 04:23:38;;;;;;;;;;;8.90;99.90;;;;;;5101258;28;19892;-77
2022/04/11 04:26:04;;;;;;;;;;;8.90;99.90;;;;;;5103814;28;19912;-77
2022/04/11 04:28:29;;;;;;;;;;;8.90;99.90;;;;;;5094766;28;20356;-77
2022/04/11 04:30:55;;;;;;;;;;;8.80;99.90;;;;;;5094364;28;19909;-77
2022/04/11 04:33:20;;;;;;;;;;;8.80;99.90;;;;;;5094628;28;20369;-77
2022/04/11 04:35:46;;;;;;;;;;;8.90;99.90;;;;;;5094205;28;20002;-77
2022/04/11 04:38:11;;;;;;;;;;;8.90;99.90;;;;;;5094569;28;20266;-77
2022/04/11 04:40:37;;;;;;;;;;;8.90;99.90;;;;;;5094548;28;19953;-77
2022/04/11 04:43:04;;;;;;;;;;;8.90;99.90;;;;;;5094122;28;19908;-77
2022/04/11 04:45:29;;;;;;;;;;;8.90;99.90;;;;;;5093412;28;19908;-77
2022/04/11 04:47:55;;;;;;;;;;;8.90;99.90;;;;;;5093675;28;20423;-77
2022/04/11 04:50:21;;;;;;;;;;;8.90;99.90;;;;;;5094350;28;19912;-77
2022/04/11 04:52:46;;;;;;;;;;;8.90;99.90;;;;;;5093887;28;20265;-76
2022/04/11 04:55:12;;;;;;;;;;;8.90;99.90;;;;;;5093816;28;19923;-77
2022/04/11 04:57:37;;;;;;;;;;;8.90;99.90;;;;;;5094393;28;19919;-77
2022/04/11 05:00:03;;;;;;;;;;;8.90;99.90;;;;;;5093966;28;20442;-77
2022/04/11 05:02:38;;;;;;;;;;;8.90;99.90;;;;;;5094326;28;20382;-77
2022/04/11 05:05:05;;;;;;;;;;;8.90;99.90;;;;;;5091874;28;19951;-77
2022/04/11 05:07:31;;;;;;;;;;;8.90;99.90;;;;;;5093878;28;19951;-77
2022/04/11 05:09:56;;;;;;;;;;;8.90;99.90;;;;;;5093457;28;19951;-76
2022/04/11 05:12:22;;;;;;;;;;;8.90;99.90;;;;;;5094234;28;19912;-76
2022/04/11 05:14:47;;;;;;;;;;;8.90;99.90;;;;;;5093431;28;19919;-76
2022/04/11 05:17:13;;;;;;;;;;;8.90;99.90;;;;;;5094002;28;19959;-76
2022/04/11 05:19:38;;;;;;;;;;;8.90;99.90;;;;;;5093610;28;19912;-76
2022/04/11 05:22:06;;;;;;;;;;;8.90;99.90;;;;;;5093357;28;20019;-76
2022/04/11 05:24:32;;;;;;;;;;;8.90;99.90;;;;;;5093596;28;19959;-76
2022/04/11 05:26:58;;;;;;;;;;;8.90;99.90;;;;;;5093006;28;19915;-75
2022/04/11 05:29:23;;;;;;;;;;;8.90;99.90;;;;;;5093788;28;19908;-76
2022/04/11 05:31:49;;;;;;;;;;;8.90;99.90;;;;;;5093344;28;19908;-76
2022/04/11 05:34:14;;;;;;;;;;;8.90;99.90;;;;;;5093571;28;19953;-76
2022/04/11 05:36:40;;;;;;;;;;;8.90;99.90;;;;;;5092961;28;20002;-76
2022/04/11 05:39:06;;;;;;;;;;;8.90;99.90;;;;;;5092689;28;19940;-75
2022/04/11 05:41:31;;;;;;;;;;;8.90;99.90;;;;;;5097654;28;19976;-75
2022/04/11 05:43:57;;;;;;;;;;;8.90;99.90;;;;;;5093014;28;19908;-77
2022/04/11 05:46:22;;;;;;;;;;;8.90;99.90;;;;;;5093452;28;19908;-76
2022/04/11 05:48:48;;;;;;;;;;;9.00;99.90;;;;;;5093021;28;20368;-75
2022/04/11 05:51:14;;;;;;;;;;;9.00;99.90;;;;;;5093349;28;19908;-76
2022/04/11 05:53:40;;;;;;;;;;;9.00;99.90;;;;;;5093171;28;19997;-76
2022/04/11 05:56:05;;;;;;;;;;;9.00;99.90;;;;;;5092661;28;19926;-77
2022/04/11 05:58:31;;;;;;;;;;;9.00;99.90;;;;;;5093088;28;19916;-76
2022/04/11 06:00:57;;;;;;;;;;;9.00;99.90;;;;;;5092393;28;19909;-76
2022/04/11 06:03:22;;;;;;;;;;;9.00;99.90;;;;;;5092967;28;19920;-77
2022/04/11 06:05:48;;;;;;;;;;;9.00;99.90;;;;;;5092945;28;20012;-75
2022/04/11 06:08:13;;;;;;;;;;;9.00;99.90;;;;;;5092647;28;19908;-76
2022/04/11 06:10:40;;;;;;;;;;;9.00;99.90;;;;;;5093130;28;20003;-76
2022/04/11 06:13:05;;;;;;;;;;;9.00;99.90;;;;;;5092470;28;19914;-76
2022/04/11 06:15:31;;;;;;;;;;;9.00;99.90;;;;;;5093002;28;20349;-76
2022/04/11 06:17:57;;;;;;;;;;;9.00;99.90;;;;;;5092458;28;19961;-76
2022/04/11 06:20:23;;;;;;;;;;;9.00;99.90;;;;;;5092673;28;20007;-76
2022/04/11 06:22:49;;;;;;;;;;;9.00;99.90;;;;;;5093800;28;19958;-76
2022/04/11 06:25:14;;;;;;;;;;;9.00;99.90;;;;;;5098876;28;19908;-76
2022/04/11 06:27:40;;;;;;;;;;;9.00;99.90;;;;;;5099696;28;20399;-76
2022/04/11 06:30:06;;;;;;;;;;;9.00;99.90;;;;;;5098939;28;19908;-76
2022/04/11 06:32:32;;;;;;;;;;;9.10;99.90;;;;;;5099652;28;20097;-78
2022/04/11 06:34:58;;;;;;;;;;;9.00;99.90;;;;;;5098932;28;19918;-78
2022/04/11 06:37:24;;;;;;;;;;;9.10;99.90;;;;;;5096894;28;20420;-79
2022/04/11 06:39:53;;;;;;;;;;;9.10;99.90;;;;;;5100261;28;19908;-79
2022/04/11 06:42:19;;;;;;;;;;;9.10;99.90;;;;;;5099653;28;20319;-78
2022/04/11 06:44:44;;;;;;;;;;;9.20;99.90;;;;;;5098577;28;19912;-78
2022/04/11 06:47:10;;;;;;;;;;;9.10;99.90;;;;;;5098702;28;19912;-79
2022/04/11 06:49:35;;;;;;;;;;;9.10;99.90;;;;;;5099525;28;20337;-78
2022/04/11 06:52:01;;;;;;;;;;;9.10;99.90;;;;;;5099151;28;19961;-79
2022/04/11 06:54:27;;;;;;;;;;;9.20;99.90;;;;;;5099449;28;19915;-79
2022/04/11 06:56:53;;;;;;;;;;;9.20;99.90;;;;;;5099463;28;19981;-78
2022/04/11 06:59:18;;;;;;;;;;;9.20;99.90;;;;;;5108105;28;19935;-79
2022/04/11 07:01:44;;;;;;;;;;;9.20;99.90;;;;;;5099260;28;20280;-79
2022/04/11 07:04:09;;;;;;;;;;;9.20;99.90;;;;;;5098769;28;19962;-79
2022/04/11 07:06:35;;;;;;;;;;;9.20;99.90;;;;;;5099543;28;20352;-79
2022/04/11 07:09:00;;;;;;;;;;;9.30;99.90;;;;;;5097509;28;19908;-79
2022/04/11 07:11:26;;;;;;;;;;;9.30;99.90;;;;;;5098832;28;19908;-79
2022/04/11 07:13:52;;;;;;;;;;;9.40;99.90;;;;;;5098922;28;20482;-78
2022/04/11 07:16:17;;;;;;;;;;;9.30;99.90;;;;;;5098693;28;19912;-80
2022/04/11 07:18:43;;;;;;;;;;;9.40;99.90;;;;;;5099577;28;20010;-78
2022/04/11 07:21:08;;;;;;;;;;;9.40;99.90;;;;;;5098669;28;19950;-79
2022/04/11 07:23:34;;;;;;;;;;;9.50;99.90;;;;;;5113471;28;20279;-78
2022/04/11 07:26:00;;;;;;;;;;;9.50;99.90;;;;;;5118905;28;19911;-78
2022/04/11 07:28:25;;;;;;;;;;;9.60;99.90;;;;;;5119584;28;19961;-78
2022/04/11 07:30:51;;;;;;;;;;;9.60;99.90;;;;;;5119432;28;20374;-78
2022/04/11 07:33:17;;;;;;;;;;;9.70;99.90;;;;;;5118742;28;20345;-78
2022/04/11 07:35:43;;;;;;;;;;;9.90;99.90;;;;;;5105997;28;19999;-79
2022/04/11 07:38:08;;;;;;;;;;;10.00;99.90;;;;;;5093479;28;20403;-79
2022/04/11 07:40:34;;;;;;;;;;;10.20;99.90;;;;;;5095306;28;19909;-79
2022/04/11 07:42:59;;;;;;;;;;;10.50;99.90;;;;;;5094779;28;20268;-76
2022/04/11 07:45:25;;;;;;;;;;;10.60;99.90;;;;;;5095258;28;20315;-76
2022/04/11 07:47:51;;;;;;;;;;;10.70;99.90;;;;;;5095508;28;20049;-76
2022/04/11 07:50:16;;;;;;;;;;;10.80;99.90;;;;;;5094917;28;19912;-75
2022/04/11 07:52:43;;;;;;;;;;;10.90;99.90;;;;;;5094499;28;20390;-75
2022/04/11 07:55:10;;;;;;;;;;;11.00;99.90;;;;;;5094326;28;19954;-76
2022/04/11 07:57:36;;;;;;;;;;;11.10;99.90;;;;;;5092546;28;19912;-76
2022/04/11 08:00:02;;;;;;;;;;;11.30;99.90;;;;;;5093493;28;19952;-76
2022/04/11 08:02:28;;;;;;;;;;;11.40;99.90;;;;;;5094304;28;19974;-76
2022/04/11 08:04:54;;;;;;;;;;;11.50;99.90;;;;;;5094844;28;19963;-76
2022/04/11 08:07:20;;;;;;;;;;;11.40;99.90;;;;;;5093238;28;20408;-76
2022/04/11 08:09:46;;;;;;;;;;;11.40;99.90;;;;;;5094876;28;19915;-76
2022/04/11 08:12:11;;;;;;;;;;;11.40;99.90;;;;;;5094150;28;19908;-76
2022/04/11 08:14:37;;;;;;;;;;;11.40;99.90;;;;;;5094814;28;20350;-76
2022/04/11 08:17:03;;;;;;;;;;;11.40;99.90;;;;;;5096094;28;19912;-76
2022/04/11 08:19:29;;;;;;;;;;;11.40;99.90;;;;;;5094679;28;19908;-76
2022/04/11 08:21:55;;;;;;;;;;;11.40;99.90;;;;;;5094097;28;19908;-76
2022/04/11 08:24:21;;;;;;;;;;;11.40;99.90;;;;;;5094086;28;20284;-77
2022/04/11 08:26:46;;;;;;;;;;;11.50;99.90;;;;;;5094778;28;20357;-77
2022/04/11 08:29:12;;;;;;;;;;;11.60;99.90;;;;;;5092854;28;20382;-77
2022/04/11 08:31:38;;;;;;;;;;;11.70;99.90;;;;;;5093129;28;19952;-77
2022/04/11 08:34:04;;;;;;;;;;;11.80;99.90;;;;;;5093444;28;20382;-77
2022/04/11 08:36:30;;;;;;;;;;;11.90;99.90;;;;;;5094052;28;20014;-77
2022/04/11 08:38:55;;;;;;;;;;;11.90;99.90;;;;;;5093887;28;19912;-74
2022/04/11 08:41:21;;;;;;;;;;;12.00;99.90;;;;;;5092658;28;19908;-77
2022/04/11 08:43:47;;;;;;;;;;;12.10;99.90;;;;;;5094155;28;19908;-77
2022/04/11 08:46:17;;;;;;;;;;;12.10;99.90;;;;;;5092907;28;19915;-77
2022/04/11 08:48:44;;;;;;;;;;;12.00;99.90;;;;;;5093336;28;20361;-77
2022/04/11 08:51:10;;;;;;;;;;;11.90;99.90;;;;;;5093370;28;19915;-77
2022/04/11 08:53:36;;;;;;;;;;;11.90;99.90;;;;;;5094005;28;19908;-78
2022/04/11 08:56:01;;;;;;;;;;;11.80;99.90;;;;;;5092957;28;19916;-76
2022/04/11 08:58:27;;;;;;;;;;;11.90;99.90;;;;;;5093672;28;20003;-77
2022/04/11 09:00:53;;;;;;;;;;;11.90;99.90;;;;;;5093486;28;19915;-77
2022/04/11 09:03:18;;;;;;;;;;;11.80;99.90;;;;;;5092702;28;19924;-77
2022/04/11 09:06:01;;;;;;;;;;;11.70;99.90;;;;;;5094027;28;19915;-77
2022/04/11 09:08:39;;;;;;;;;;;11.70;99.90;;;;;;5093553;28;20361;-75
2022/04/11 09:11:05;;;;;;;;;;;11.60;99.90;;;;;;5093692;28;19984;-75
2022/04/11 09:13:45;;;;;;;;;;;11.50;99.90;;;;;;5093545;28;20349;-75
2022/04/11 09:16:11;;;;;;;;;;;11.50;99.90;;;;;;5091954;28;19912;-75
2022/04/11 09:18:50;;;;;;;;;;;11.50;99.90;;;;;;5093724;28;20281;-75
2022/04/11 09:21:16;;;;;;;;;;;11.50;99.90;;;;;;5092904;28;19915;-77
2022/04/11 09:23:42;;;;;;;;;;;11.50;99.90;;;;;;5091830;28;19912;-77
2022/04/11 09:26:34;;;;;;;;;;;11.40;99.90;;;;;;5091803;28;19908;-76
2022/04/11 09:29:01;;;;;;;;;;;11.40;99.90;;;;;;5090008;28;19908;-76
2022/04/11 09:31:27;;;;;;;;;;;11.40;99.90;;;;;;5093410;28;19952;-77
2022/04/11 09:33:52;;;;;;;;;;;11.30;99.90;;;;;;5092193;28;20269;-77
2022/04/11 09:36:20;;;;;;;;;;;11.30;99.90;;;;;;5096180;28;20525;-78
2022/04/11 09:38:58;;;;;;;;;;;11.20;99.90;;;;;;5093507;28;20361;-76
2022/04/11 09:41:28;;;;;;;;;;;11.30;99.90;;;;;;5092334;28;19908;-77
2022/04/11 09:43:54;;;;;;;;;;;11.30;99.90;;;;;;5092303;28;19908;-76
2022/04/11 09:46:20;;;;;;;;;;;11.30;99.90;;;;;;5092047;28;20077;-77
2022/04/11 09:48:45;;;;;;;;;;;11.40;99.90;;;;;;5092241;28;19915;-77
2022/04/11 09:51:13;;;;;;;;;;;11.50;99.90;;;;;;5091906;28;19915;-76
2022/04/11 09:53:39;;;;;;;;;;;11.60;99.90;;;;;;5092078;28;19908;-77
2022/04/11 09:56:05;;;;;;;;;;;11.70;99.90;;;;;;5090268;28;19919;-76
2022/04/11 09:58:33;;;;;;;;;;;11.80;99.90;;;;;;5091422;28;19913;-76
2022/04/11 10:00:58;;;;;;;;;;;11.80;99.90;;;;;;5091979;28;20027;-76
2022/04/11 10:03:24;;;;;;;;;;;11.70;99.90;;;;;;5089968;28;20389;-76
2022/04/11 10:05:50;;;;;;;;;;;11.50;99.90;;;;;;5082368;28;19913;-76
2022/04/11 10:08:17;;;;;;;;;;;11.50;99.90;;;;;;5071359;28;20342;-78
2022/04/11 10:10:43;;;;;;;;;;;11.50;99.90;;;;;;5072039;28;20432;-77
2022/04/11 10:13:15;;;;;;;;;;;11.50;99.90;;;;;;5071081;28;19991;-76
2022/04/11 10:15:42;;;;;;;;;;;11.50;99.90;;;;;;5071795;28;20341;-77
2022/04/11 10:18:09;;;;;;;;;;;11.60;99.90;;;;;;5070820;28;20403;-77
2022/04/11 10:20:39;;;;;;;;;;;11.70;99.90;;;;;;5071719;28;19916;-77
2022/04/11 10:23:10;;;;;;;;;;;11.80;99.90;;;;;;5071043;28;19920;-77
2022/04/11 10:25:37;;;;;;;;;;;11.90;99.90;;;;;;5071312;28;19916;-77
2022/04/11 10:28:19;;;;;;;;;;;11.90;99.90;;;;;;5070078;28;19926;-77
2022/04/11 10:30:46;;;;;;;;;;;11.80;99.90;;;;;;5070872;28;19908;-77
2022/04/11 10:33:12;;;;;;;;;;;11.70;99.90;;;;;;5070940;28;20004;-76
2022/04/11 10:35:44;;;;;;;;;;;11.60;99.90;;;;;;5078299;28;19912;-76
2022/04/11 10:38:15;;;;;;;;;;;11.50;99.90;;;;;;5096435;28;20006;-76
2022/04/11 10:40:47;;;;;;;;;;;11.30;99.90;;;;;;5091874;28;19907;-77
2022/04/11 10:43:14;;;;;;;;;;;11.30;99.90;;;;;;5088539;28;19908;-76
2022/04/11 10:45:41;;;;;;;;;;;11.20;99.90;;;;;;5092084;28;20277;-77
2022/04/11 10:48:07;;;;;;;;;;;11.00;99.90;;;;;;5091365;28;20348;-77
2022/04/11 10:50:40;;;;;;;;;;;11.00;99.90;;;;;;5091952;28;20364;-77
2022/04/11 10:53:07;;;;;;;;;;;11.00;99.90;;;;;;5091252;28;19908;-78
2022/04/11 10:55:33;;;;;;;;;;;10.90;99.90;;;;;;5091424;28;19912;-78
2022/04/11 10:58:00;;;;;;;;;;;10.90;99.90;;;;;;5091733;28;19919;-77
2022/04/11 11:00:34;;;;;;;;;;;10.80;99.90;;;;;;5092011;28;20007;-77
2022/04/11 11:03:05;;;;;;;;;;;10.80;99.90;;;;;;5089836;28;19919;-77
2022/04/11 11:05:30;;;;;;;;;;;10.60;99.90;;;;;;5091563;28;19943;-79
2022/04/11 11:08:14;;;;;;;;;;;10.50;99.90;;;;;;5091472;28;20396;-78
2022/04/11 11:10:43;;;;;;;;;;;10.40;99.90;;;;;;5094227;28;19915;-80
2022/04/11 11:13:27;;;;;;;;;;;10.30;99.90;;;;;;5094791;28;19998;-86
2022/04/11 11:15:53;;;;;;;;;;;10.20;99.90;;;;;;5094402;28;19938;-85
2022/04/11 11:18:19;;;;;;;;;;;10.00;99.90;;;;;;5094295;28;19976;-87
2022/04/11 11:21:03;;;;;;;;;;;9.80;99.90;;;;;;5094882;28;20338;-87
2022/04/11 11:23:31;;;;;;;;;;;9.70;99.90;;;;;;5095242;28;20406;-84
2022/04/11 11:26:08;;;;;;;;;;;9.60;99.90;;;;;;5094846;28;19909;-81
2022/04/11 11:28:33;;;;;;;;;;;9.60;99.90;;;;;;5095644;28;19915;-78
2022/04/11 11:30:59;;;;;;;;;;;9.50;99.90;;;;;;5095154;28;19916;-77
2022/04/11 11:33:26;;;;;;;;;;;9.50;99.90;;;;;;5095390;28;19989;-78
2022/04/11 11:35:52;;;;;;;;;;;9.50;99.90;;;;;;5094168;28;19927;-78
2022/04/11 11:38:22;;;;;;;;;;;9.50;99.90;;;;;;5108076;28;20633;-79
2022/04/11 11:40:53;;;;;;;;;;;9.50;99.90;;;;;;5095785;28;19919;-78
2022/04/11 11:43:18;;;;;;;;;;;9.50;99.90;;;;;;5094924;28;19908;-78
2022/04/11 11:45:44;;;;;;;;;;;9.50;99.90;;;;;;5095419;28;19908;-78
2022/04/11 11:48:22;;;;;;;;;;;9.40;99.90;;;;;;5094716;28;19913;-78
2022/04/11 11:50:48;;;;;;;;;;;9.40;99.90;;;;;;5094596;28;19915;-77
2022/04/11 11:53:14;;;;;;;;;;;9.50;99.90;;;;;;5087605;28;19934;-78
2022/04/11 11:55:53;;;;;;;;;;;9.60;99.90;;;;;;5094759;28;19944;-77
2022/04/11 11:58:18;;;;;;;;;;;9.60;99.90;;;;;;5094491;28;19935;-77
2022/04/11 12:00:50;;;;;;;;;;;9.60;99.90;;;;;;5094880;28;20357;-78
2022/04/11 12:06:03;;;;;;;;;;;9.70;99.90;;;;;;5094661;28;19942;-75
2022/04/11 12:08:30;;;;;;;;;;;9.80;99.90;;;;;;5094406;28;19915;-78
2022/04/11 12:10:57;;;;;;;;;;;9.80;99.90;;;;;;5093622;28;19991;-77
2022/04/11 12:13:24;;;;;;;;;;;9.90;99.90;;;;;;5098334;28;19908;-76
2022/04/11 12:15:50;;;;;;;;;;;10.00;99.90;;;;;;5099270;28;19962;-78
2022/04/11 12:18:15;;;;;;;;;;;10.10;99.90;;;;;;5094033;28;19912;-77
2022/04/11 12:20:43;;;;;;;;;;;10.20;99.90;;;;;;5094247;28;19915;-77
2022/04/11 12:23:11;;;;;;;;;;;10.30;99.90;;;;;;5093573;28;19908;-77
2022/04/11 12:25:50;;;;;;;;;;;10.40;99.90;;;;;;5094574;28;19930;-77
2022/04/11 12:28:16;;;;;;;;;;;10.50;99.90;;;;;;5094045;28;19954;-78
2022/04/11 12:30:45;;;;;;;;;;;10.50;99.90;;;;;;5094432;28;19916;-77
2022/04/11 12:33:11;;;;;;;;;;;10.60;99.90;;;;;;5093982;28;19908;-77
2022/04/11 12:35:37;;;;;;;;;;;10.60;99.90;;;;;;5094478;28;19912;-77
2022/04/11 12:38:07;;;;;;;;;;;10.60;99.90;;;;;;5092916;28;19920;-76
2022/04/11 12:40:45;;;;;;;;;;;10.60;99.90;;;;;;5094341;28;19915;-78
2022/04/11 12:43:12;;;;;;;;;;;10.60;99.90;;;;;;5094269;28;20415;-77
2022/04/11 12:45:38;;;;;;;;;;;10.60;99.90;;;;;;5093866;28;19917;-78
2022/04/11 12:48:07;;;;;;;;;;;10.60;99.90;;;;;;5093981;28;19907;-76
2022/04/11 12:50:33;;;;;;;;;;;10.60;99.90;;;;;;5094418;28;19947;-77
2022/04/11 12:52:59;;;;;;;;;;;10.60;99.90;;;;;;5097265;28;20257;-79
2022/04/11 12:55:26;;;;;;;;;;;10.70;99.90;;;;;;5092514;28;19964;-77
2022/04/11 12:58:02;;;;;;;;;;;10.70;99.90;;;;;;5093779;28;20345;-77
2022/04/11 13:00:29;;;;;;;;;;;10.70;99.90;;;;;;5093230;28;19908;-77
2022/04/11 13:02:56;;;;;;;;;;;10.80;99.90;;;;;;5093520;28;20006;-77
2022/04/11 13:05:22;;;;;;;;;;;10.80;99.90;;;;;;5092959;28;19973;-76
2022/04/11 13:07:49;;;;;;;;;;;10.90;99.90;;;;;;5093682;28;19908;-77
2022/04/11 13:10:15;;;;;;;;;;;11.00;99.90;;;;;;5093348;28;19990;-76
2022/04/11 13:12:40;;;;;;;;;;;11.00;99.90;;;;;;5093558;28;19908;-77
2022/04/11 13:15:09;;;;;;;;;;;11.10;99.90;;;;;;5092811;28;19912;-76
2022/04/11 13:20:22;;;;;;;;;;;11.10;99.90;;;;;;5092868;28;19974;-76
2022/04/11 13:22:51;;;;;;;;;;;11.10;99.90;;;;;;5093275;28;20421;-76
2022/04/11 13:25:16;;;;;;;;;;;11.20;99.90;;;;;;5093103;28;20019;-76
2022/04/11 13:27:42;;;;;;;;;;;11.20;99.90;;;;;;5093266;28;20416;-77
2022/04/11 13:30:09;;;;;;;;;;;11.20;99.90;;;;;;5092984;28;20030;-75
2022/04/11 13:32:34;;;;;;;;;;;11.20;99.90;;;;;;5092827;28;19996;-76
2022/04/11 13:35:00;;;;;;;;;;;11.20;99.90;;;;;;5092801;28;20010;-77
2022/04/11 13:37:25;;;;;;;;;;;11.20;99.90;;;;;;5092507;28;19916;-77
2022/04/11 13:39:51;;;;;;;;;;;11.30;99.90;;;;;;5093037;28;20396;-77
2022/04/11 13:42:17;;;;;;;;;;;11.20;99.90;;;;;;5092410;28;20021;-77
2022/04/11 13:44:42;;;;;;;;;;;11.20;99.90;;;;;;5093561;28;19912;-77
2022/04/11 13:47:10;;;;;;;;;;;11.20;99.90;;;;;;5092532;28;20311;-76
2022/04/11 13:49:36;;;;;;;;;;;11.20;99.90;;;;;;5093110;28;19908;-77
2022/04/11 13:52:02;;;;;;;;;;;11.20;99.90;;;;;;5093018;28;19916;-77
2022/04/11 13:54:28;;;;;;;;;;;11.20;99.90;;;;;;5092074;28;20615;-77
2022/04/11 13:56:53;;;;;;;;;;;11.20;99.90;;;;;;5092106;28;19916;-77
2022/04/11 13:59:25;;;;;;;;;;;11.20;99.90;;;;;;5090874;28;19948;-77
2022/04/11 14:01:51;;;;;;;;;;;11.30;99.90;;;;;;5092641;28;20373;-76
2022/04/11 14:04:17;;;;;;;;;;;11.20;99.90;;;;;;5092055;28;19956;-77
2022/04/11 14:06:43;;;;;;;;;;;11.30;99.90;;;;;;5091414;28;19931;-77
2022/04/11 14:09:12;;;;;;;;;;;11.20;99.90;;;;;;5091057;28;19931;-75
2022/04/11 14:11:38;;;;;;;;;;;11.30;99.90;;;;;;5092368;28;20285;-77
2022/04/11 14:14:04;;;;;;;;;;;11.30;99.90;;;;;;5090195;28;19915;-76
2022/04/11 14:16:30;;;;;;;;;;;11.30;99.90;;;;;;5092497;28;19920;-76
2022/04/11 14:18:56;;;;;;;;;;;11.30;99.90;;;;;;5091092;28;19912;-77
2022/04/11 14:21:21;;;;;;;;;;;11.30;99.90;;;;;;5092169;28;20276;-76
2022/04/11 14:23:47;;;;;;;;;;;11.30;99.90;;;;;;5092948;28;19920;-76
2022/04/11 14:26:13;;;;;;;;;;;11.30;99.90;;;;;;5090615;28;19915;-76